Terminal Aerodrome Forecast
Issued by NWS

Home | Current Version | Previous Version | Text Only | Print | Product List | Glossary On
Versions: 1 2 3 4 5 6 7 8 9 10 11 12 13 14 15 16 17 18 19
000
FTUS44 KTSA 311700 RRA
TAFFYV
TAF
KFYV 311740Z 3118/0118 19005KT 5SM BR OVC013
     FM312100 15004KT P6SM OVC025
     FM010000 15002KT P6SM SCT250
     FM010600 00000KT 2SM BR SCT250
     FM011000 00000KT 1/2SM FG OVC005
     FM011400 18004KT P6SM BKN250=

USA.gov is the U.S. government's official web portal to all federal, state and local government web resources and services.